sensor_id;sensor_type;location;lat;lon;timestamp;P1;durP1;ratioP1;P2;durP2;ratioP2
22939;SDS011;11636;52.086;5.090;2022-10-17T00:00:16;3.20;;;1.90;;
22939;SDS011;11636;52.086;5.090;2022-10-17T00:02:42;3.72;;;2.33;;
22939;SDS011;11636;52.086;5.090;2022-10-17T00:05:16;2.65;;;1.90;;
22939;SDS011;11636;52.086;5.090;2022-10-17T00:07:49;3.60;;;2.40;;
22939;SDS011;11636;52.086;5.090;2022-10-17T00:10:23;3.30;;;2.42;;
22939;SDS011;11636;52.086;5.090;2022-10-17T00:12:50;3.05;;;1.90;;
22939;SDS011;11636;52.086;5.090;2022-10-17T00:15:24;3.22;;;2.03;;
22939;SDS011;11636;52.086;5.090;2022-10-17T00:17:50;3.63;;;2.58;;
22939;SDS011;11636;52.086;5.090;2022-10-17T00:20:24;3.50;;;2.05;;
22939;SDS011;11636;52.086;5.090;2022-10-17T00:22:57;3.90;;;2.95;;
22939;SDS011;11636;52.086;5.090;2022-10-17T00:25:37;3.22;;;2.05;;
22939;SDS011;11636;52.086;5.090;2022-10-17T00:28:10;2.95;;;2.03;;
22939;SDS011;11636;52.086;5.090;2022-10-17T00:30:38;3.10;;;2.33;;
22939;SDS011;11636;52.086;5.090;2022-10-17T00:33:12;3.50;;;2.78;;
22939;SDS011;11636;52.086;5.090;2022-10-17T00:35:38;4.28;;;2.50;;
22939;SDS011;11636;52.086;5.090;2022-10-17T00:38:12;3.08;;;2.50;;
22939;SDS011;11636;52.086;5.090;2022-10-17T00:40:38;3.30;;;2.33;;
22939;SDS011;11636;52.086;5.090;2022-10-17T00:43:16;4.25;;;3.00;;
22939;SDS011;11636;52.086;5.090;2022-10-17T00:45:43;5.20;;;3.37;;
22939;SDS011;11636;52.086;5.090;2022-10-17T00:48:17;3.50;;;2.70;;
22939;SDS011;11636;52.086;5.090;2022-10-17T00:50:48;4.23;;;2.80;;
22939;SDS011;11636;52.086;5.090;2022-10-17T00:53:22;4.47;;;3.17;;
22939;SDS011;11636;52.086;5.090;2022-10-17T00:55:50;3.45;;;2.60;;
22939;SDS011;11636;52.086;5.090;2022-10-17T00:58:25;3.63;;;2.70;;
22939;SDS011;11636;52.086;5.090;2022-10-17T01:00:51;3.55;;;2.58;;
22939;SDS011;11636;52.086;5.090;2022-10-17T01:03:25;3.70;;;2.78;;
22939;SDS011;11636;52.086;5.090;2022-10-17T01:05:52;3.67;;;2.90;;
22939;SDS011;11636;52.086;5.090;2022-10-17T01:08:25;5.20;;;3.40;;
22939;SDS011;11636;52.086;5.090;2022-10-17T01:11:08;3.50;;;2.70;;
22939;SDS011;11636;52.086;5.090;2022-10-17T01:13:46;4.60;;;3.25;;
22939;SDS011;11636;52.086;5.090;2022-10-17T01:16:35;3.75;;;2.75;;
22939;SDS011;11636;52.086;5.090;2022-10-17T01:22:13;4.35;;;2.88;;
22939;SDS011;11636;52.086;5.090;2022-10-17T01:30:56;3.40;;;2.30;;
22939;SDS011;11636;52.086;5.090;2022-10-17T01:33:47;3.65;;;2.83;;
22939;SDS011;11636;52.086;5.090;2022-10-17T01:39:19;4.72;;;3.10;;
22939;SDS011;11636;52.086;5.090;2022-10-17T01:47:19;5.00;;;3.50;;
22939;SDS011;11636;52.086;5.090;2022-10-17T01:49:57;4.45;;;3.45;;
22939;SDS011;11636;52.086;5.090;2022-10-17T01:52:38;3.70;;;2.80;;
22939;SDS011;11636;52.086;5.090;2022-10-17T01:55:17;4.18;;;3.15;;
22939;SDS011;11636;52.086;5.090;2022-10-17T01:57:55;4.43;;;3.00;;
22939;SDS011;11636;52.086;5.090;2022-10-17T02:00:26;4.10;;;3.30;;
22939;SDS011;11636;52.086;5.090;2022-10-17T02:03:02;3.67;;;2.80;;
22939;SDS011;11636;52.086;5.090;2022-10-17T02:05:40;5.10;;;3.10;;
22939;SDS011;11636;52.086;5.090;2022-10-17T02:08:07;4.55;;;3.67;;
22939;SDS011;11636;52.086;5.090;2022-10-17T02:13:30;4.35;;;3.60;;
22939;SDS011;11636;52.086;5.090;2022-10-17T02:16:12;7.68;;;5.85;;
22939;SDS011;11636;52.086;5.090;2022-10-17T02:30:43;4.97;;;4.22;;
22939;SDS011;11636;52.086;5.090;2022-10-17T02:33:26;4.93;;;3.78;;
22939;SDS011;11636;52.086;5.090;2022-10-17T02:36:18;4.82;;;3.25;;
22939;SDS011;11636;52.086;5.090;2022-10-17T02:38:56;4.45;;;3.33;;
22939;SDS011;11636;52.086;5.090;2022-10-17T02:41:25;4.93;;;3.90;;
22939;SDS011;11636;52.086;5.090;2022-10-17T02:43:59;4.05;;;3.30;;
22939;SDS011;11636;52.086;5.090;2022-10-17T02:46:29;4.03;;;3.10;;
22939;SDS011;11636;52.086;5.090;2022-10-17T02:49:07;5.70;;;4.38;;
22939;SDS011;11636;52.086;5.090;2022-10-17T02:52:00;4.95;;;4.20;;
22939;SDS011;11636;52.086;5.090;2022-10-17T02:54:47;5.90;;;4.32;;
22939;SDS011;11636;52.086;5.090;2022-10-17T02:57:27;4.57;;;3.50;;
22939;SDS011;11636;52.086;5.090;2022-10-17T02:59:58;5.05;;;4.28;;
22939;SDS011;11636;52.086;5.090;2022-10-17T03:02:44;4.50;;;3.60;;
22939;SDS011;11636;52.086;5.090;2022-10-17T03:05:23;4.75;;;3.70;;
22939;SDS011;11636;52.086;5.090;2022-10-17T03:07:59;6.75;;;5.88;;
22939;SDS011;11636;52.086;5.090;2022-10-17T03:10:26;7.03;;;6.15;;
22939;SDS011;11636;52.086;5.090;2022-10-17T03:12:59;6.50;;;5.43;;
22939;SDS011;11636;52.086;5.090;2022-10-17T03:15:26;6.60;;;5.43;;
22939;SDS011;11636;52.086;5.090;2022-10-17T03:17:59;6.85;;;5.38;;
22939;SDS011;11636;52.086;5.090;2022-10-17T03:20:26;6.97;;;5.25;;
22939;SDS011;11636;52.086;5.090;2022-10-17T03:22:59;5.90;;;4.93;;
22939;SDS011;11636;52.086;5.090;2022-10-17T03:25:26;8.52;;;6.38;;
22939;SDS011;11636;52.086;5.090;2022-10-17T03:28:00;11.32;;;8.18;;
22939;SDS011;11636;52.086;5.090;2022-10-17T03:30:33;9.45;;;8.45;;
22939;SDS011;11636;52.086;5.090;2022-10-17T03:33:06;9.25;;;8.23;;
22939;SDS011;11636;52.086;5.090;2022-10-17T03:35:33;11.45;;;8.00;;
22939;SDS011;11636;52.086;5.090;2022-10-17T03:38:10;12.05;;;9.57;;
22939;SDS011;11636;52.086;5.090;2022-10-17T03:40:43;10.57;;;7.95;;
22939;SDS011;11636;52.086;5.090;2022-10-17T03:43:10;8.98;;;7.65;;
22939;SDS011;11636;52.086;5.090;2022-10-17T03:45:43;8.70;;;7.57;;
22939;SDS011;11636;52.086;5.090;2022-10-17T03:48:16;9.00;;;7.45;;
22939;SDS011;11636;52.086;5.090;2022-10-17T03:50:43;8.02;;;6.80;;
22939;SDS011;11636;52.086;5.090;2022-10-17T03:53:16;8.02;;;6.70;;
22939;SDS011;11636;52.086;5.090;2022-10-17T03:55:50;7.75;;;6.57;;
22939;SDS011;11636;52.086;5.090;2022-10-17T03:58:23;8.23;;;6.90;;
22939;SDS011;11636;52.086;5.090;2022-10-17T04:00:50;6.13;;;5.50;;
22939;SDS011;11636;52.086;5.090;2022-10-17T04:03:17;6.45;;;5.45;;
22939;SDS011;11636;52.086;5.090;2022-10-17T04:05:51;7.03;;;5.85;;
22939;SDS011;11636;52.086;5.090;2022-10-17T04:08:18;6.68;;;5.95;;
22939;SDS011;11636;52.086;5.090;2022-10-17T04:10:51;7.55;;;6.13;;
22939;SDS011;11636;52.086;5.090;2022-10-17T04:13:18;8.13;;;7.10;;
22939;SDS011;11636;52.086;5.090;2022-10-17T04:15:54;7.13;;;6.43;;
22939;SDS011;11636;52.086;5.090;2022-10-17T04:18:25;9.85;;;7.00;;
22939;SDS011;11636;52.086;5.090;2022-10-17T04:21:02;7.65;;;6.78;;
22939;SDS011;11636;52.086;5.090;2022-10-17T04:23:30;6.97;;;5.93;;
22939;SDS011;11636;52.086;5.090;2022-10-17T04:26:04;6.82;;;6.05;;
22939;SDS011;11636;52.086;5.090;2022-10-17T04:28:39;6.90;;;6.10;;
22939;SDS011;11636;52.086;5.090;2022-10-17T04:31:13;7.25;;;5.82;;
22939;SDS011;11636;52.086;5.090;2022-10-17T04:33:40;7.88;;;6.68;;
22939;SDS011;11636;52.086;5.090;2022-10-17T04:36:15;7.70;;;6.88;;
22939;SDS011;11636;52.086;5.090;2022-10-17T04:38:43;8.90;;;7.25;;
22939;SDS011;11636;52.086;5.090;2022-10-17T04:41:17;9.55;;;7.80;;
22939;SDS011;11636;52.086;5.090;2022-10-17T04:43:44;9.35;;;6.65;;
22939;SDS011;11636;52.086;5.090;2022-10-17T04:46:18;11.52;;;7.40;;
22939;SDS011;11636;52.086;5.090;2022-10-17T04:48:45;8.05;;;7.25;;
22939;SDS011;11636;52.086;5.090;2022-10-17T04:51:18;9.05;;;6.90;;
22939;SDS011;11636;52.086;5.090;2022-10-17T04:53:51;9.63;;;7.78;;
22939;SDS011;11636;52.086;5.090;2022-10-17T04:56:24;9.25;;;7.30;;
22939;SDS011;11636;52.086;5.090;2022-10-17T04:58:51;10.52;;;8.07;;
22939;SDS011;11636;52.086;5.090;2022-10-17T05:01:24;7.70;;;6.15;;
22939;SDS011;11636;52.086;5.090;2022-10-17T05:03:52;8.75;;;7.72;;
22939;SDS011;11636;52.086;5.090;2022-10-17T05:06:25;8.32;;;7.05;;
22939;SDS011;11636;52.086;5.090;2022-10-17T05:08:56;8.25;;;6.95;;
22939;SDS011;11636;52.086;5.090;2022-10-17T05:11:30;8.32;;;7.22;;
22939;SDS011;11636;52.086;5.090;2022-10-17T05:13:58;8.70;;;7.65;;
22939;SDS011;11636;52.086;5.090;2022-10-17T05:16:32;7.72;;;6.93;;
22939;SDS011;11636;52.086;5.090;2022-10-17T05:18:59;8.18;;;6.53;;
22939;SDS011;11636;52.086;5.090;2022-10-17T05:21:32;7.22;;;6.15;;
22939;SDS011;11636;52.086;5.090;2022-10-17T05:23:59;7.88;;;6.68;;
22939;SDS011;11636;52.086;5.090;2022-10-17T05:26:33;8.57;;;6.75;;
22939;SDS011;11636;52.086;5.090;2022-10-17T05:29:06;8.32;;;7.10;;
22939;SDS011;11636;52.086;5.090;2022-10-17T05:31:40;7.60;;;6.13;;
22939;SDS011;11636;52.086;5.090;2022-10-17T05:34:07;7.50;;;6.22;;
22939;SDS011;11636;52.086;5.090;2022-10-17T05:36:40;9.13;;;7.57;;
22939;SDS011;11636;52.086;5.090;2022-10-17T05:39:07;9.27;;;6.90;;
22939;SDS011;11636;52.086;5.090;2022-10-17T05:41:40;9.18;;;6.68;;
22939;SDS011;11636;52.086;5.090;2022-10-17T05:44:07;6.65;;;5.65;;
22939;SDS011;11636;52.086;5.090;2022-10-17T05:46:33;6.05;;;5.05;;
22939;SDS011;11636;52.086;5.090;2022-10-17T05:49:08;6.32;;;5.25;;
22939;SDS011;11636;52.086;5.090;2022-10-17T05:51:55;6.22;;;5.07;;
22939;SDS011;11636;52.086;5.090;2022-10-17T05:54:28;6.65;;;5.10;;
22939;SDS011;11636;52.086;5.090;2022-10-17T05:57:01;7.93;;;6.03;;
22939;SDS011;11636;52.086;5.090;2022-10-17T05:59:28;5.57;;;4.82;;
22939;SDS011;11636;52.086;5.090;2022-10-17T06:02:09;7.45;;;5.65;;
22939;SDS011;11636;52.086;5.090;2022-10-17T06:04:38;7.50;;;6.03;;
22939;SDS011;11636;52.086;5.090;2022-10-17T06:07:17;7.95;;;5.85;;
22939;SDS011;11636;52.086;5.090;2022-10-17T06:09:44;6.93;;;5.63;;
22939;SDS011;11636;52.086;5.090;2022-10-17T06:12:17;7.60;;;5.95;;
22939;SDS011;11636;52.086;5.090;2022-10-17T06:14:44;6.40;;;5.20;;
22939;SDS011;11636;52.086;5.090;2022-10-17T06:17:17;10.07;;;5.82;;
22939;SDS011;11636;52.086;5.090;2022-10-17T06:19:44;7.80;;;6.35;;
22939;SDS011;11636;52.086;5.090;2022-10-17T06:22:11;6.97;;;5.95;;
22939;SDS011;11636;52.086;5.090;2022-10-17T06:24:44;7.10;;;5.72;;
22939;SDS011;11636;52.086;5.090;2022-10-17T06:27:11;6.47;;;5.65;;
22939;SDS011;11636;52.086;5.090;2022-10-17T06:29:38;6.40;;;5.30;;
22939;SDS011;11636;52.086;5.090;2022-10-17T06:32:11;7.30;;;5.68;;
22939;SDS011;11636;52.086;5.090;2022-10-17T06:34:40;6.20;;;4.80;;
22939;SDS011;11636;52.086;5.090;2022-10-17T06:37:13;7.13;;;5.22;;
22939;SDS011;11636;52.086;5.090;2022-10-17T06:39:40;6.38;;;5.35;;
22939;SDS011;11636;52.086;5.090;2022-10-17T06:42:07;6.18;;;5.05;;
22939;SDS011;11636;52.086;5.090;2022-10-17T06:44:40;6.72;;;5.75;;
22939;SDS011;11636;52.086;5.090;2022-10-17T06:47:08;6.07;;;5.45;;
22939;SDS011;11636;52.086;5.090;2022-10-17T06:49:45;6.10;;;5.50;;
22939;SDS011;11636;52.086;5.090;2022-10-17T06:52:12;6.80;;;5.90;;
22939;SDS011;11636;52.086;5.090;2022-10-17T06:54:46;7.85;;;6.50;;
22939;SDS011;11636;52.086;5.090;2022-10-17T06:57:13;6.47;;;5.72;;
22939;SDS011;11636;52.086;5.090;2022-10-17T06:59:46;7.43;;;6.43;;
22939;SDS011;11636;52.086;5.090;2022-10-17T07:02:13;6.72;;;5.80;;
22939;SDS011;11636;52.086;5.090;2022-10-17T07:04:46;7.57;;;6.50;;
22939;SDS011;11636;52.086;5.090;2022-10-17T07:07:13;8.75;;;6.03;;
22939;SDS011;11636;52.086;5.090;2022-10-17T07:09:46;9.60;;;7.05;;
22939;SDS011;11636;52.086;5.090;2022-10-17T07:12:13;6.32;;;5.72;;
22939;SDS011;11636;52.086;5.090;2022-10-17T07:14:46;7.53;;;6.25;;
22939;SDS011;11636;52.086;5.090;2022-10-17T07:17:16;7.13;;;5.60;;
22939;SDS011;11636;52.086;5.090;2022-10-17T07:19:50;6.65;;;5.60;;
22939;SDS011;11636;52.086;5.090;2022-10-17T07:22:23;7.88;;;6.38;;
22939;SDS011;11636;52.086;5.090;2022-10-17T07:24:56;10.00;;;7.10;;
22939;SDS011;11636;52.086;5.090;2022-10-17T07:27:23;7.93;;;6.28;;
22939;SDS011;11636;52.086;5.090;2022-10-17T07:29:57;6.68;;;5.50;;
22939;SDS011;11636;52.086;5.090;2022-10-17T07:32:24;7.45;;;6.22;;
22939;SDS011;11636;52.086;5.090;2022-10-17T07:34:57;6.43;;;5.50;;
22939;SDS011;11636;52.086;5.090;2022-10-17T07:37:24;7.95;;;5.88;;
22939;SDS011;11636;52.086;5.090;2022-10-17T07:39:51;8.60;;;6.65;;
22939;SDS011;11636;52.086;5.090;2022-10-17T07:42:24;7.53;;;6.28;;
22939;SDS011;11636;52.086;5.090;2022-10-17T07:44:59;9.07;;;6.88;;
22939;SDS011;11636;52.086;5.090;2022-10-17T07:47:26;8.18;;;6.82;;
22939;SDS011;11636;52.086;5.090;2022-10-17T07:49:56;8.20;;;6.90;;
22939;SDS011;11636;52.086;5.090;2022-10-17T07:52:34;8.82;;;6.63;;
22939;SDS011;11636;52.086;5.090;2022-10-17T07:55:01;10.40;;;8.35;;
22939;SDS011;11636;52.086;5.090;2022-10-17T07:57:28;11.95;;;8.43;;
22939;SDS011;11636;52.086;5.090;2022-10-17T08:00:01;11.75;;;8.15;;
22939;SDS011;11636;52.086;5.090;2022-10-17T08:02:35;9.75;;;8.27;;
22939;SDS011;11636;52.086;5.090;2022-10-17T08:05:02;15.30;;;9.02;;
22939;SDS011;11636;52.086;5.090;2022-10-17T08:07:35;12.98;;;8.35;;
22939;SDS011;11636;52.086;5.090;2022-10-17T08:10:02;10.02;;;8.30;;
22939;SDS011;11636;52.086;5.090;2022-10-17T08:12:30;15.10;;;9.43;;
22939;SDS011;11636;52.086;5.090;2022-10-17T08:15:06;12.55;;;8.55;;
22939;SDS011;11636;52.086;5.090;2022-10-17T08:17:39;13.55;;;8.90;;
22939;SDS011;11636;52.086;5.090;2022-10-17T08:20:06;11.60;;;8.27;;
22939;SDS011;11636;52.086;5.090;2022-10-17T08:22:39;11.55;;;8.60;;
22939;SDS011;11636;52.086;5.090;2022-10-17T08:25:06;11.73;;;9.23;;
22939;SDS011;11636;52.086;5.090;2022-10-17T08:27:40;10.02;;;7.95;;
22939;SDS011;11636;52.086;5.090;2022-10-17T08:30:07;12.18;;;9.13;;
22939;SDS011;11636;52.086;5.090;2022-10-17T08:32:41;12.88;;;8.48;;
22939;SDS011;11636;52.086;5.090;2022-10-17T08:35:08;9.63;;;7.63;;
22939;SDS011;11636;52.086;5.090;2022-10-17T08:37:35;12.73;;;9.00;;
22939;SDS011;11636;52.086;5.090;2022-10-17T08:43:21;17.70;;;10.38;;
22939;SDS011;11636;52.086;5.090;2022-10-17T08:46:14;10.95;;;8.68;;
22939;SDS011;11636;52.086;5.090;2022-10-17T08:48:48;9.95;;;7.90;;
22939;SDS011;11636;52.086;5.090;2022-10-17T08:51:20;10.43;;;8.45;;
22939;SDS011;11636;52.086;5.090;2022-10-17T08:57:00;10.53;;;7.37;;
22939;SDS011;11636;52.086;5.090;2022-10-17T08:59:33;8.15;;;6.63;;
22939;SDS011;11636;52.086;5.090;2022-10-17T09:16:19;5.82;;;4.93;;
22939;SDS011;11636;52.086;5.090;2022-10-17T09:21:52;7.07;;;5.47;;
22939;SDS011;11636;52.086;5.090;2022-10-17T09:25:01;6.13;;;5.18;;
22939;SDS011;11636;52.086;5.090;2022-10-17T09:27:43;6.93;;;5.63;;
22939;SDS011;11636;52.086;5.090;2022-10-17T09:33:19;6.28;;;4.93;;
22939;SDS011;11636;52.086;5.090;2022-10-17T09:36:17;6.38;;;5.20;;
22939;SDS011;11636;52.086;5.090;2022-10-17T09:38:53;6.15;;;5.15;;
22939;SDS011;11636;52.086;5.090;2022-10-17T09:41:23;7.15;;;5.63;;
22939;SDS011;11636;52.086;5.090;2022-10-17T09:44:31;6.05;;;4.88;;
22939;SDS011;11636;52.086;5.090;2022-10-17T09:47:02;7.43;;;6.03;;
22939;SDS011;11636;52.086;5.090;2022-10-17T09:49:49;5.72;;;4.40;;
22939;SDS011;11636;52.086;5.090;2022-10-17T09:52:17;5.20;;;4.40;;
22939;SDS011;11636;52.086;5.090;2022-10-17T09:54:56;6.28;;;4.70;;
22939;SDS011;11636;52.086;5.090;2022-10-17T09:57:29;7.35;;;5.88;;
22939;SDS011;11636;52.086;5.090;2022-10-17T10:00:35;7.88;;;5.53;;
22939;SDS011;11636;52.086;5.090;2022-10-17T10:03:22;7.65;;;5.10;;
22939;SDS011;11636;52.086;5.090;2022-10-17T10:06:03;8.57;;;6.53;;
22939;SDS011;11636;52.086;5.090;2022-10-17T10:08:35;9.20;;;6.07;;
22939;SDS011;11636;52.086;5.090;2022-10-17T10:11:21;8.75;;;6.68;;
22939;SDS011;11636;52.086;5.090;2022-10-17T10:13:51;12.30;;;7.25;;
22939;SDS011;11636;52.086;5.090;2022-10-17T10:16:22;10.75;;;8.07;;
22939;SDS011;11636;52.086;5.090;2022-10-17T10:19:03;11.38;;;7.95;;
22939;SDS011;11636;52.086;5.090;2022-10-17T10:21:56;10.18;;;7.35;;
22939;SDS011;11636;52.086;5.090;2022-10-17T10:26:59;11.98;;;8.65;;
22939;SDS011;11636;52.086;5.090;2022-10-17T10:32:25;9.90;;;8.38;;
22939;SDS011;11636;52.086;5.090;2022-10-17T10:35:02;12.20;;;9.40;;
22939;SDS011;11636;52.086;5.090;2022-10-17T10:37:57;8.65;;;7.20;;
22939;SDS011;11636;52.086;5.090;2022-10-17T10:40:30;10.25;;;8.30;;
22939;SDS011;11636;52.086;5.090;2022-10-17T10:43:16;12.75;;;9.18;;
22939;SDS011;11636;52.086;5.090;2022-10-17T10:45:58;12.43;;;8.98;;
22939;SDS011;11636;52.086;5.090;2022-10-17T10:48:33;9.18;;;7.10;;
22939;SDS011;11636;52.086;5.090;2022-10-17T10:51:11;10.75;;;7.57;;
22939;SDS011;11636;52.086;5.090;2022-10-17T10:56:48;9.02;;;6.40;;
22939;SDS011;11636;52.086;5.090;2022-10-17T11:04:54;7.70;;;5.45;;
22939;SDS011;11636;52.086;5.090;2022-10-17T11:07:54;6.75;;;5.38;;
22939;SDS011;11636;52.086;5.090;2022-10-17T11:10:42;6.82;;;4.82;;
22939;SDS011;11636;52.086;5.090;2022-10-17T11:13:24;7.28;;;5.68;;
22939;SDS011;11636;52.086;5.090;2022-10-17T11:16:03;8.38;;;7.18;;
22939;SDS011;11636;52.086;5.090;2022-10-17T11:21:15;8.35;;;7.13;;
22939;SDS011;11636;52.086;5.090;2022-10-17T11:27:01;10.55;;;8.23;;
22939;SDS011;11636;52.086;5.090;2022-10-17T11:29:32;11.15;;;7.50;;
22939;SDS011;11636;52.086;5.090;2022-10-17T11:32:18;7.85;;;7.05;;
22939;SDS011;11636;52.086;5.090;2022-10-17T11:35:20;7.95;;;7.15;;
22939;SDS011;11636;52.086;5.090;2022-10-17T11:38:01;14.40;;;9.18;;
22939;SDS011;11636;52.086;5.090;2022-10-17T11:40:43;11.10;;;8.55;;
22939;SDS011;11636;52.086;5.090;2022-10-17T11:45:58;8.73;;;7.82;;
22939;SDS011;11636;52.086;5.090;2022-10-17T11:48:50;9.98;;;8.48;;
22939;SDS011;11636;52.086;5.090;2022-10-17T11:51:18;9.63;;;8.63;;
22939;SDS011;11636;52.086;5.090;2022-10-17T11:54:17;12.43;;;9.05;;
22939;SDS011;11636;52.086;5.090;2022-10-17T12:23:01;6.50;;;4.93;;
22939;SDS011;11636;52.086;5.090;2022-10-17T12:25:35;5.40;;;4.07;;
22939;SDS011;11636;52.086;5.090;2022-10-17T12:34:01;7.03;;;4.18;;
22939;SDS011;11636;52.086;5.090;2022-10-17T12:49:46;6.10;;;3.85;;
22939;SDS011;11636;52.086;5.090;2022-10-17T12:55:10;6.53;;;4.38;;
22939;SDS011;11636;52.086;5.090;2022-10-17T13:02:56;5.82;;;4.35;;
22939;SDS011;11636;52.086;5.090;2022-10-17T13:08:25;6.78;;;4.65;;
22939;SDS011;11636;52.086;5.090;2022-10-17T13:10:55;6.93;;;5.10;;
22939;SDS011;11636;52.086;5.090;2022-10-17T13:16:33;6.25;;;5.05;;
22939;SDS011;11636;52.086;5.090;2022-10-17T13:19:15;7.00;;;4.90;;
22939;SDS011;11636;52.086;5.090;2022-10-17T13:21:54;9.43;;;6.40;;
22939;SDS011;11636;52.086;5.090;2022-10-17T13:24:36;8.45;;;5.28;;
22939;SDS011;11636;52.086;5.090;2022-10-17T13:27:20;5.63;;;4.75;;
22939;SDS011;11636;52.086;5.090;2022-10-17T13:32:35;7.38;;;6.45;;
22939;SDS011;11636;52.086;5.090;2022-10-17T13:35:13;8.52;;;7.15;;
22939;SDS011;11636;52.086;5.090;2022-10-17T13:38:07;7.72;;;6.50;;
22939;SDS011;11636;52.086;5.090;2022-10-17T13:40:41;8.70;;;7.13;;
22939;SDS011;11636;52.086;5.090;2022-10-17T13:43:16;14.80;;;8.35;;
22939;SDS011;11636;52.086;5.090;2022-10-17T13:45:56;8.82;;;7.38;;
22939;SDS011;11636;52.086;5.090;2022-10-17T13:48:57;9.63;;;7.68;;
22939;SDS011;11636;52.086;5.090;2022-10-17T13:51:59;7.82;;;6.63;;
22939;SDS011;11636;52.086;5.090;2022-10-17T13:54:40;9.60;;;7.65;;
22939;SDS011;11636;52.086;5.090;2022-10-17T13:57:22;9.95;;;7.78;;
22939;SDS011;11636;52.086;5.090;2022-10-17T13:59:56;10.48;;;8.23;;
22939;SDS011;11636;52.086;5.090;2022-10-17T14:05:10;9.20;;;7.43;;
22939;SDS011;11636;52.086;5.090;2022-10-17T14:10:40;7.57;;;6.40;;
22939;SDS011;11636;52.086;5.090;2022-10-17T14:13:18;7.20;;;5.88;;
22939;SDS011;11636;52.086;5.090;2022-10-17T14:15:48;8.00;;;6.25;;
22939;SDS011;11636;52.086;5.090;2022-10-17T14:18:26;6.93;;;6.07;;
22939;SDS011;11636;52.086;5.090;2022-10-17T14:21:01;7.65;;;6.60;;
22939;SDS011;11636;52.086;5.090;2022-10-17T14:27:00;11.65;;;9.23;;
22939;SDS011;11636;52.086;5.090;2022-10-17T14:29:49;10.63;;;8.65;;
22939;SDS011;11636;52.086;5.090;2022-10-17T14:32:18;7.57;;;6.45;;
22939;SDS011;11636;52.086;5.090;2022-10-17T14:34:53;8.48;;;6.88;;
22939;SDS011;11636;52.086;5.090;2022-10-17T14:37:33;7.47;;;6.35;;
22939;SDS011;11636;52.086;5.090;2022-10-17T14:40:19;7.90;;;6.27;;
22939;SDS011;11636;52.086;5.090;2022-10-17T14:42:51;7.30;;;6.50;;
22939;SDS011;11636;52.086;5.090;2022-10-17T14:48:10;8.07;;;6.22;;
22939;SDS011;11636;52.086;5.090;2022-10-17T14:50:40;10.82;;;8.43;;
22939;SDS011;11636;52.086;5.090;2022-10-17T14:55:53;13.77;;;8.82;;
22939;SDS011;11636;52.086;5.090;2022-10-17T14:58:32;12.98;;;8.32;;
22939;SDS011;11636;52.086;5.090;2022-10-17T15:00:59;9.95;;;7.45;;
22939;SDS011;11636;52.086;5.090;2022-10-17T15:03:27;7.75;;;6.38;;
22939;SDS011;11636;52.086;5.090;2022-10-17T15:06:08;10.93;;;8.18;;
22939;SDS011;11636;52.086;5.090;2022-10-17T15:08:45;8.02;;;6.88;;
22939;SDS011;11636;52.086;5.090;2022-10-17T15:11:18;7.53;;;5.85;;
22939;SDS011;11636;52.086;5.090;2022-10-17T15:13:51;7.43;;;5.65;;
22939;SDS011;11636;52.086;5.090;2022-10-17T15:16:19;8.23;;;5.35;;
22939;SDS011;11636;52.086;5.090;2022-10-17T15:18:51;6.70;;;5.32;;
22939;SDS011;11636;52.086;5.090;2022-10-17T15:21:26;7.60;;;5.72;;
22939;SDS011;11636;52.086;5.090;2022-10-17T15:24:12;9.27;;;6.13;;
22939;SDS011;11636;52.086;5.090;2022-10-17T15:26:47;8.55;;;5.63;;
22939;SDS011;11636;52.086;5.090;2022-10-17T15:29:15;11.38;;;6.25;;
22939;SDS011;11636;52.086;5.090;2022-10-17T15:31:42;8.48;;;5.60;;
22939;SDS011;11636;52.086;5.090;2022-10-17T15:34:15;6.40;;;5.57;;
22939;SDS011;11636;52.086;5.090;2022-10-17T15:36:47;8.90;;;5.50;;
22939;SDS011;11636;52.086;5.090;2022-10-17T15:39:22;8.98;;;5.43;;
22939;SDS011;11636;52.086;5.090;2022-10-17T15:41:49;10.10;;;4.93;;
22939;SDS011;11636;52.086;5.090;2022-10-17T15:44:16;7.47;;;5.03;;
22939;SDS011;11636;52.086;5.090;2022-10-17T15:46:49;7.65;;;4.95;;
22939;SDS011;11636;52.086;5.090;2022-10-17T15:49:16;9.10;;;5.82;;
22939;SDS011;11636;52.086;5.090;2022-10-17T15:51:51;5.90;;;4.53;;
22939;SDS011;11636;52.086;5.090;2022-10-17T15:54:20;6.25;;;5.00;;
22939;SDS011;11636;52.086;5.090;2022-10-17T15:56:48;6.72;;;4.47;;
22939;SDS011;11636;52.086;5.090;2022-10-17T15:59:27;8.90;;;5.65;;
22939;SDS011;11636;52.086;5.090;2022-10-17T16:02:09;9.95;;;5.50;;
22939;SDS011;11636;52.086;5.090;2022-10-17T16:04:39;9.23;;;5.32;;
22939;SDS011;11636;52.086;5.090;2022-10-17T16:07:19;9.93;;;5.45;;
22939;SDS011;11636;52.086;5.090;2022-10-17T16:09:46;7.75;;;5.97;;
22939;SDS011;11636;52.086;5.090;2022-10-17T16:12:27;6.47;;;5.50;;
22939;SDS011;11636;52.086;5.090;2022-10-17T16:14:56;10.05;;;6.10;;
22939;SDS011;11636;52.086;5.090;2022-10-17T16:17:23;8.57;;;5.07;;
22939;SDS011;11636;52.086;5.090;2022-10-17T16:19:56;7.78;;;5.10;;
22939;SDS011;11636;52.086;5.090;2022-10-17T16:22:26;7.45;;;4.63;;
22939;SDS011;11636;52.086;5.090;2022-10-17T16:25:03;6.63;;;4.30;;
22939;SDS011;11636;52.086;5.090;2022-10-17T16:27:37;8.25;;;4.78;;
22939;SDS011;11636;52.086;5.090;2022-10-17T16:30:11;5.88;;;3.80;;
22939;SDS011;11636;52.086;5.090;2022-10-17T16:32:38;5.30;;;3.50;;
22939;SDS011;11636;52.086;5.090;2022-10-17T16:35:06;6.65;;;3.70;;
22939;SDS011;11636;52.086;5.090;2022-10-17T16:37:39;7.13;;;3.30;;
22939;SDS011;11636;52.086;5.090;2022-10-17T16:40:06;6.40;;;3.60;;
22939;SDS011;11636;52.086;5.090;2022-10-17T16:42:33;5.30;;;2.80;;
22939;SDS011;11636;52.086;5.090;2022-10-17T16:45:07;5.00;;;3.10;;
22939;SDS011;11636;52.086;5.090;2022-10-17T16:50:13;4.25;;;2.70;;
22939;SDS011;11636;52.086;5.090;2022-10-17T16:52:40;5.15;;;3.03;;
22939;SDS011;11636;52.086;5.090;2022-10-17T16:55:08;5.43;;;2.78;;
22939;SDS011;11636;52.086;5.090;2022-10-17T16:57:42;5.15;;;3.20;;
22939;SDS011;11636;52.086;5.090;2022-10-17T17:00:14;4.65;;;2.70;;
22939;SDS011;11636;52.086;5.090;2022-10-17T17:02:48;5.45;;;3.20;;
22939;SDS011;11636;52.086;5.090;2022-10-17T17:05:15;4.07;;;2.40;;
22939;SDS011;11636;52.086;5.090;2022-10-17T17:07:42;4.38;;;2.75;;
22939;SDS011;11636;52.086;5.090;2022-10-17T17:10:15;4.13;;;2.53;;
22939;SDS011;11636;52.086;5.090;2022-10-17T17:12:42;4.88;;;2.70;;
22939;SDS011;11636;52.086;5.090;2022-10-17T17:15:15;3.40;;;2.30;;
22939;SDS011;11636;52.086;5.090;2022-10-17T17:17:42;6.22;;;2.90;;
22939;SDS011;11636;52.086;5.090;2022-10-17T17:20:17;5.47;;;3.00;;
22939;SDS011;11636;52.086;5.090;2022-10-17T17:22:50;5.65;;;2.90;;
22939;SDS011;11636;52.086;5.090;2022-10-17T17:25:17;3.60;;;2.35;;
22939;SDS011;11636;52.086;5.090;2022-10-17T17:27:44;6.15;;;2.70;;
22939;SDS011;11636;52.086;5.090;2022-10-17T17:30:17;5.63;;;3.03;;
22939;SDS011;11636;52.086;5.090;2022-10-17T17:32:44;4.22;;;2.15;;
22939;SDS011;11636;52.086;5.090;2022-10-17T17:35:11;6.15;;;3.45;;
22939;SDS011;11636;52.086;5.090;2022-10-17T17:37:44;4.93;;;3.30;;
22939;SDS011;11636;52.086;5.090;2022-10-17T17:40:11;4.70;;;2.85;;
22939;SDS011;11636;52.086;5.090;2022-10-17T17:42:45;4.60;;;3.22;;
22939;SDS011;11636;52.086;5.090;2022-10-17T17:45:18;7.05;;;3.97;;
22939;SDS011;11636;52.086;5.090;2022-10-17T17:47:45;4.57;;;3.30;;
22939;SDS011;11636;52.086;5.090;2022-10-17T17:50:12;5.10;;;3.45;;
22939;SDS011;11636;52.086;5.090;2022-10-17T17:52:45;7.55;;;4.80;;
22939;SDS011;11636;52.086;5.090;2022-10-17T17:55:15;5.65;;;4.03;;
22939;SDS011;11636;52.086;5.090;2022-10-17T17:57:45;5.43;;;3.88;;
22939;SDS011;11636;52.086;5.090;2022-10-17T18:00:18;4.95;;;3.42;;
22939;SDS011;11636;52.086;5.090;2022-10-17T18:02:45;5.75;;;3.75;;
22939;SDS011;11636;52.086;5.090;2022-10-17T18:05:12;8.38;;;4.70;;